Карточка аэропорта URKK

Внимание!
Информация на этой странице в стадии наполнения.
Если вы не увидели какой-то информации, или заметили неточность - пожалуйста сообщите нам!
Спасибо!
Команда RU-STAFF
Название аэропортаПашковский
Название аэропорта (англ.)Pashkovskiy
Превышение120 ft. (36.6 m.)
Координаты45°2.0820000000001', 39°10.218'
Высота перехода4000 ft
Эшелон переходаFL60 (QNH >= 977); FL70 (QNH < 977)
Коды ответчика1030-1037
Зона ОрВДРостов-на-Дону РПИ (URRV)
Данные METARURKK 290100Z 10004MPS 9999 FEW///CB 16/09 Q1009 R05R/CLRD70 TEMPO 1000 TSRA SCT005 BKN016CB RMK QFE754
Проноз погоды (TAF)URKK 281946Z 2821/2921 06003G08MPS 9999 SCT020CB TEMPO 2821/2918 2000 TSRA BKN016CB BECMG 2903/2905 24003G08MPS
NOTAMshow/hide NOTAM
AWOS   TABLE

Информация о ВПП

ВПП Длина ВПП (м.) Покрытие Курс ВПП Частота ILS
05L2200Асфальтобетон46 
05R3000Железобетон46 
23R2200Асфальтобетон226 
23L3000Железобетон226 

Диспетчерские позиции

Позывной Наименование органа УВД Частота
URKK_TWRКраснодар-Вышка118.2
URKK_R_APPКраснодар-Круг121.3
URKK_GNDКраснодар-Руление119.0
URKK_APPКраснодар-Подход129.6



Спутниковое изображение